createdAt,value
2023-01-31T00:00:08.734Z,15.35
2023-01-31T00:02:10.219Z,13.77
2023-01-31T00:04:12.636Z,12.35
2023-01-31T00:06:21.228Z,13.80
2023-01-31T00:08:22.673Z,7.28
2023-01-31T00:10:24.122Z,17.20
2023-01-31T00:12:25.590Z,9.55
2023-01-31T00:14:27.041Z,15.13
2023-01-31T00:16:28.614Z,15.90
2023-01-31T00:18:30.844Z,15.35
2023-01-31T00:20:32.320Z,17.38
2023-01-31T00:22:33.848Z,21.38
2023-01-31T00:24:35.306Z,10.20
2023-01-31T00:26:37.560Z,18.23
2023-01-31T00:28:40.342Z,23.20
2023-01-31T00:30:41.769Z,24.75
2023-01-31T00:32:43.261Z,20.60
2023-01-31T00:34:44.865Z,19.92
2023-01-31T00:36:46.355Z,18.15
2023-01-31T00:38:56.597Z,14.48
2023-01-31T00:40:58.110Z,16.05
2023-01-31T00:42:59.609Z,21.80
2023-01-31T00:45:01.079Z,18.35
2023-01-31T00:47:02.745Z,20.92
2023-01-31T00:49:04.620Z,17.60
2023-01-31T00:51:06.478Z,26.27
2023-01-31T00:53:08.000Z,21.00
2023-01-31T00:55:09.610Z,21.33
2023-01-31T00:57:11.105Z,20.83
2023-01-31T00:59:12.706Z,25.60
2023-01-31T01:01:23.501Z,18.02
2023-01-31T01:03:25.017Z,13.77
2023-01-31T01:05:26.463Z,21.50
2023-01-31T01:07:27.913Z,19.92
2023-01-31T01:09:29.535Z,27.90
2023-01-31T01:11:32.641Z,22.77
2023-01-31T01:13:34.829Z,14.27
2023-01-31T01:15:39.692Z,18.83
2023-01-31T01:17:41.312Z,20.45
2023-01-31T01:19:42.809Z,22.35
2023-01-31T01:21:44.659Z,20.63
2023-01-31T01:23:49.830Z,13.75
2023-01-31T01:25:51.285Z,14.27
2023-01-31T01:27:52.714Z,17.83
2023-01-31T01:29:54.188Z,10.98
2023-01-31T01:31:55.727Z,8.93
2023-01-31T01:34:02.897Z,18.23
2023-01-31T01:36:06.659Z,12.70
2023-01-31T01:38:08.134Z,11.00
2023-01-31T01:40:10.158Z,8.23
2023-01-31T01:42:18.279Z,14.68
2023-01-31T01:44:41.586Z,14.27
2023-01-31T01:46:45.956Z,23.10
2023-01-31T01:48:51.290Z,14.23
2023-01-31T01:50:53.327Z,8.80
2023-01-31T01:53:08.398Z,7.38
2023-01-31T01:55:16.658Z,13.48
2023-01-31T01:57:23.088Z,17.02
2023-01-31T01:59:47.695Z,14.60
2023-01-31T02:01:50.631Z,17.52
2023-01-31T02:03:53.132Z,11.35
2023-01-31T02:05:58.693Z,20.27
2023-01-31T02:08:02.125Z,12.82
2023-01-31T02:10:19.567Z,14.65
2023-01-31T02:12:21.531Z,30.95
2023-01-31T02:14:23.239Z,23.67
2023-01-31T02:16:24.762Z,16.75
2023-01-31T02:18:27.934Z,21.15
2023-01-31T02:20:38.548Z,15.65
2023-01-31T02:22:54.169Z,27.73
2023-01-31T02:25:32.548Z,18.73
2023-01-31T02:27:58.601Z,23.52
2023-01-31T02:30:05.808Z,23.50
2023-01-31T02:32:13.347Z,21.65
2023-01-31T02:34:44.681Z,21.20
2023-01-31T02:37:01.899Z,23.63
2023-01-31T02:39:15.581Z,27.10
2023-01-31T02:41:38.774Z,26.27
2023-01-31T02:44:16.073Z,16.20
2023-01-31T02:46:18.687Z,17.67
2023-01-31T02:48:57.915Z,14.27
2023-01-31T02:51:15.390Z,18.00
2023-01-31T02:54:12.127Z,24.05
2023-01-31T02:56:28.893Z,25.95
2023-01-31T02:58:34.489Z,15.55
2023-01-31T03:00:38.662Z,26.33
2023-01-31T03:02:40.294Z,28.58
2023-01-31T03:04:43.051Z,19.27
2023-01-31T03:06:59.682Z,24.27
2023-01-31T03:09:25.727Z,25.52
2023-01-31T03:11:53.354Z,16.15
2023-01-31T03:14:12.535Z,25.33
2023-01-31T03:16:35.417Z,20.65
2023-01-31T03:18:52.283Z,15.70
2023-01-31T03:21:03.808Z,20.10
2023-01-31T03:23:10.959Z,26.25
2023-01-31T03:25:15.118Z,19.48
2023-01-31T03:27:17.681Z,22.92
2023-01-31T03:29:20.033Z,18.25
2023-01-31T03:31:32.833Z,16.55
2023-01-31T03:33:42.257Z,19.63
2023-01-31T03:35:51.679Z,18.45
2023-01-31T03:38:06.064Z,14.20
2023-01-31T03:40:23.633Z,18.30
2023-01-31T03:42:40.061Z,25.20
2023-01-31T03:44:41.459Z,23.20
2023-01-31T03:46:59.448Z,10.85
2023-01-31T03:49:04.193Z,13.85
2023-01-31T03:51:09.624Z,20.80
2023-01-31T03:53:16.021Z,18.55
2023-01-31T03:55:24.495Z,14.30
2023-01-31T03:57:34.427Z,17.25
2023-01-31T03:59:40.071Z,20.90
2023-01-31T04:01:50.624Z,25.02
2023-01-31T04:03:56.445Z,18.90
2023-01-31T04:05:58.007Z,18.02
2023-01-31T04:08:00.283Z,12.40
2023-01-31T04:10:02.546Z,19.10
2023-01-31T04:12:04.271Z,18.60
2023-01-31T04:14:06.096Z,13.57
2023-01-31T04:16:08.225Z,18.13
2023-01-31T04:18:09.723Z,17.92
2023-01-31T04:20:13.090Z,22.48
2023-01-31T04:22:14.605Z,17.15
2023-01-31T04:24:16.092Z,11.43
2023-01-31T04:26:17.685Z,22.63
2023-01-31T04:28:19.187Z,22.17
2023-01-31T04:30:20.661Z,12.18
2023-01-31T04:32:22.119Z,21.02
2023-01-31T04:34:23.630Z,13.68
2023-01-31T04:36:25.745Z,14.55
2023-01-31T04:38:27.298Z,13.48
2023-01-31T04:40:28.764Z,13.88
2023-01-31T04:42:30.249Z,15.95
2023-01-31T04:44:31.935Z,20.90
2023-01-31T04:46:33.521Z,18.00
2023-01-31T04:48:35.331Z,22.50
2023-01-31T04:50:36.820Z,15.00
2023-01-31T04:52:38.503Z,20.05
2023-01-31T04:54:40.061Z,23.38
2023-01-31T04:56:41.530Z,13.35
2023-01-31T04:58:43.517Z,18.48
2023-01-31T05:00:45.139Z,23.58
2023-01-31T05:02:46.812Z,15.45
2023-01-31T05:04:48.393Z,21.67
2023-01-31T05:06:50.025Z,14.63
2023-01-31T05:08:54.366Z,21.25
2023-01-31T05:11:02.308Z,19.20
2023-01-31T05:13:05.007Z,13.32
2023-01-31T05:15:11.609Z,18.08
2023-01-31T05:17:13.212Z,12.73
2023-01-31T05:19:16.161Z,18.67
2023-01-31T05:21:17.782Z,14.00
2023-01-31T05:23:19.787Z,20.92
2023-01-31T05:25:21.589Z,21.70
2023-01-31T05:27:23.359Z,18.08
2023-01-31T05:29:29.505Z,19.35
2023-01-31T05:31:31.548Z,18.42
2023-01-31T05:33:33.522Z,17.73
2023-01-31T05:35:35.963Z,15.65
2023-01-31T05:37:37.510Z,8.38
2023-01-31T05:39:39.159Z,21.73
2023-01-31T05:41:40.621Z,19.52
2023-01-31T05:43:42.098Z,13.10
2023-01-31T05:45:43.603Z,15.15
2023-01-31T05:47:47.198Z,17.27
2023-01-31T05:49:48.678Z,16.10
2023-01-31T05:51:50.191Z,12.82
2023-01-31T05:53:52.002Z,20.73
2023-01-31T05:55:54.196Z,10.60
2023-01-31T05:57:56.357Z,14.15
2023-01-31T05:59:57.812Z,14.23
2023-01-31T06:01:59.804Z,12.45
2023-01-31T06:04:01.960Z,16.33
2023-01-31T06:06:05.168Z,16.83
2023-01-31T06:08:07.123Z,19.38
2023-01-31T06:10:10.983Z,17.88
2023-01-31T06:12:16.814Z,16.88
2023-01-31T06:14:18.310Z,18.63
2023-01-31T06:16:19.904Z,17.55
2023-01-31T06:18:21.409Z,15.00
2023-01-31T06:20:22.940Z,14.40
2023-01-31T06:22:24.527Z,26.58
2023-01-31T06:24:25.972Z,12.48
2023-01-31T06:26:27.697Z,18.05
2023-01-31T06:28:29.261Z,13.63
2023-01-31T06:30:30.926Z,20.30
2023-01-31T06:32:32.937Z,19.15
2023-01-31T06:34:34.489Z,16.08
2023-01-31T06:36:35.960Z,20.23
2023-01-31T06:38:37.439Z,19.25
2023-01-31T06:40:38.932Z,18.75
2023-01-31T06:42:40.393Z,17.65
2023-01-31T06:44:41.870Z,21.52
2023-01-31T06:46:43.352Z,25.38
2023-01-31T06:48:44.829Z,17.48
2023-01-31T06:50:46.745Z,17.88
2023-01-31T06:52:48.238Z,16.52
2023-01-31T06:54:49.863Z,21.58
2023-01-31T06:56:51.450Z,15.45
2023-01-31T06:58:52.880Z,17.85
2023-01-31T07:00:54.819Z,15.50
2023-01-31T07:02:56.887Z,19.67
2023-01-31T07:04:58.432Z,17.80
2023-01-31T07:06:59.885Z,17.60
2023-01-31T07:09:01.383Z,17.00
2023-01-31T07:11:03.855Z,23.88
2023-01-31T07:13:05.297Z,26.17
2023-01-31T07:15:07.438Z,21.20
2023-01-31T07:17:09.002Z,26.17
2023-01-31T07:19:10.508Z,20.42
2023-01-31T07:21:11.969Z,22.85
2023-01-31T07:23:13.436Z,29.48
2023-01-31T07:25:14.956Z,22.30
2023-01-31T07:27:16.662Z,16.15
2023-01-31T07:29:18.117Z,19.05
2023-01-31T07:31:20.876Z,16.42
2023-01-31T07:33:22.395Z,17.98
2023-01-31T07:35:24.133Z,19.73
2023-01-31T07:37:25.627Z,19.00
2023-01-31T07:39:27.852Z,16.67
2023-01-31T07:41:30.012Z,25.77
2023-01-31T07:43:32.634Z,22.30
2023-01-31T07:45:34.483Z,24.38
2023-01-31T07:47:36.187Z,12.55
2023-01-31T07:49:37.708Z,18.98
2023-01-31T07:51:39.271Z,17.40
2023-01-31T07:53:42.278Z,17.33
2023-01-31T07:55:47.649Z,16.83
2023-01-31T07:57:49.378Z,16.45
2023-01-31T07:59:50.958Z,21.73
2023-01-31T08:02:10.844Z,20.38
2023-01-31T08:04:21.471Z,24.45
2023-01-31T08:06:23.782Z,19.52
2023-01-31T08:08:25.230Z,30.80
2023-01-31T08:10:26.678Z,22.65
2023-01-31T08:12:29.298Z,19.77
2023-01-31T08:14:31.361Z,22.42
2023-01-31T08:16:33.157Z,20.60
2023-01-31T08:18:34.990Z,19.45
2023-01-31T08:20:39.411Z,24.75
2023-01-31T08:22:40.886Z,23.30
2023-01-31T08:24:42.407Z,26.35
2023-01-31T08:26:44.488Z,24.75
2023-01-31T08:28:47.222Z,21.92
2023-01-31T08:31:02.801Z,24.40
2023-01-31T08:33:11.216Z,19.90
2023-01-31T08:35:12.712Z,20.70
2023-01-31T08:37:15.773Z,24.58
2023-01-31T08:39:18.139Z,17.50
2023-01-31T08:41:22.496Z,29.85
2023-01-31T08:43:23.939Z,22.95
2023-01-31T08:45:25.431Z,22.83
2023-01-31T08:47:26.895Z,26.02
2023-01-31T08:49:29.079Z,25.05
2023-01-31T08:51:31.477Z,17.52
2023-01-31T08:53:34.011Z,19.73
2023-01-31T08:55:37.037Z,23.10
2023-01-31T08:57:45.868Z,21.35
2023-01-31T08:59:58.388Z,25.00
2023-01-31T09:01:59.865Z,21.60
2023-01-31T09:04:01.407Z,23.55
2023-01-31T09:06:06.002Z,19.25
2023-01-31T09:08:07.453Z,26.70
2023-01-31T09:10:09.583Z,26.70
2023-01-31T09:12:11.041Z,22.73
2023-01-31T09:14:12.700Z,16.15
2023-01-31T09:16:15.335Z,20.77
2023-01-31T09:18:16.794Z,15.43
2023-01-31T09:20:19.018Z,28.42
2023-01-31T09:22:20.683Z,22.05
2023-01-31T09:24:22.148Z,25.88
2023-01-31T09:26:23.847Z,21.20
2023-01-31T09:28:25.678Z,20.45
2023-01-31T09:30:27.177Z,26.75
2023-01-31T09:32:30.138Z,18.02
2023-01-31T09:34:32.116Z,19.63
2023-01-31T09:36:33.659Z,25.30
2023-01-31T09:38:35.896Z,25.27
2023-01-31T09:40:40.627Z,27.73
2023-01-31T09:42:45.489Z,19.35
2023-01-31T09:44:58.500Z,17.52
2023-01-31T09:47:24.649Z,17.50
2023-01-31T09:49:31.954Z,23.20
2023-01-31T09:51:39.339Z,21.65
2023-01-31T09:53:42.280Z,28.70
2023-01-31T09:56:02.712Z,22.63
2023-01-31T09:58:16.637Z,17.58
2023-01-31T10:00:21.082Z,23.13
2023-01-31T10:02:45.278Z,22.17
2023-01-31T10:05:05.558Z,25.25
2023-01-31T10:07:15.195Z,15.40
2023-01-31T10:09:42.738Z,17.98
2023-01-31T10:11:48.807Z,26.40
2023-01-31T10:13:57.722Z,19.95
2023-01-31T10:16:30.423Z,33.70
2023-01-31T10:18:42.260Z,20.85
2023-01-31T10:20:52.254Z,17.98
2023-01-31T10:23:04.554Z,17.92
2023-01-31T10:25:28.374Z,23.30
2023-01-31T10:27:46.087Z,21.48
2023-01-31T10:29:54.064Z,22.88
2023-01-31T10:31:57.432Z,20.17
2023-01-31T10:34:01.786Z,17.33
2023-01-31T10:36:11.463Z,13.57
2023-01-31T10:38:23.469Z,17.05
2023-01-31T10:40:46.080Z,22.63
2023-01-31T10:42:57.763Z,26.00
2023-01-31T10:44:59.278Z,26.88
2023-01-31T10:47:00.861Z,24.65
2023-01-31T10:49:03.468Z,28.02
2023-01-31T10:51:20.611Z,20.52
2023-01-31T10:53:52.198Z,25.15
2023-01-31T10:56:10.756Z,32.38
2023-01-31T10:58:19.497Z,25.70
2023-01-31T11:02:29.891Z,18.75
2023-01-31T11:04:38.744Z,28.10
2023-01-31T11:08:50.516Z,16.80
2023-01-31T11:10:54.231Z,22.92
2023-01-31T11:13:01.856Z,27.85
2023-01-31T11:15:06.812Z,18.20
2023-01-31T11:17:21.507Z,17.17
2023-01-31T11:19:27.453Z,29.52
2023-01-31T11:21:35.832Z,27.63
2023-01-31T11:23:38.016Z,23.02
2023-01-31T11:25:39.530Z,18.02
2023-01-31T11:27:43.649Z,23.70
2023-01-31T11:29:50.232Z,29.02
2023-01-31T11:31:53.181Z,19.55
2023-01-31T11:34:01.964Z,27.40
2023-01-31T11:38:22.342Z,15.93
2023-01-31T11:40:38.450Z,17.35
2023-01-31T11:42:55.111Z,19.15
2023-01-31T11:45:18.490Z,23.35
2023-01-31T11:47:28.702Z,20.35
2023-01-31T11:49:35.379Z,12.85
2023-01-31T11:51:36.979Z,15.38
2023-01-31T11:53:43.960Z,19.88
2023-01-31T11:55:48.079Z,13.05
2023-01-31T11:57:56.647Z,16.10
2023-01-31T12:00:00.758Z,12.18
2023-01-31T12:02:02.446Z,18.25
2023-01-31T12:04:05.737Z,15.35
2023-01-31T12:06:09.988Z,15.68
2023-01-31T12:08:43.917Z,17.60
2023-01-31T12:10:48.757Z,15.80
2023-01-31T12:12:52.309Z,10.43
2023-01-31T12:14:59.332Z,9.98
2023-01-31T12:17:01.382Z,12.43
2023-01-31T12:19:02.843Z,11.60
2023-01-31T12:21:22.958Z,11.63
2023-01-31T12:23:35.131Z,11.27
2023-01-31T12:26:08.855Z,13.15
2023-01-31T12:28:13.064Z,11.32
2023-01-31T12:30:35.788Z,8.68
2023-01-31T12:33:11.190Z,13.05
2023-01-31T12:35:37.488Z,9.52
2023-01-31T12:37:49.932Z,7.28
2023-01-31T12:40:23.821Z,11.88
2023-01-31T12:42:37.162Z,5.57
2023-01-31T12:44:50.751Z,6.75
2023-01-31T12:47:09.957Z,5.22
2023-01-31T12:49:12.621Z,5.65
2023-01-31T12:51:32.732Z,6.05
2023-01-31T12:53:50.881Z,7.35
2023-01-31T12:56:41.542Z,6.65
2023-01-31T12:59:16.305Z,5.13
2023-01-31T13:01:32.498Z,4.22
2023-01-31T13:03:46.440Z,6.82
2023-01-31T13:06:10.174Z,7.60
2023-01-31T13:08:24.815Z,2.25
2023-01-31T13:10:43.984Z,4.70
2023-01-31T13:12:46.688Z,2.03
2023-01-31T13:15:29.329Z,2.72
2023-01-31T13:17:33.999Z,3.50
2023-01-31T13:19:44.393Z,1.38
2023-01-31T13:21:50.862Z,3.38
2023-01-31T13:23:55.869Z,4.60
2023-01-31T13:26:09.589Z,2.22
2023-01-31T13:28:28.494Z,2.15
2023-01-31T13:30:48.996Z,2.08
2023-01-31T13:32:55.273Z,1.55
2023-01-31T13:35:26.459Z,2.67
2023-01-31T13:37:30.432Z,1.80
2023-01-31T13:39:37.668Z,3.05
2023-01-31T13:41:40.005Z,2.15
2023-01-31T13:43:41.515Z,2.03
2023-01-31T13:45:48.352Z,1.75
2023-01-31T13:47:56.168Z,2.88
2023-01-31T13:50:17.548Z,1.98
2023-01-31T13:52:21.544Z,3.50
2023-01-31T13:54:57.639Z,3.38
2023-01-31T13:57:01.315Z,1.90
2023-01-31T13:59:06.995Z,3.45
2023-01-31T14:01:17.651Z,3.85
2023-01-31T14:03:20.747Z,2.28
2023-01-31T14:05:52.692Z,3.22
2023-01-31T14:08:33.086Z,4.65
2023-01-31T14:10:42.462Z,2.97
2023-01-31T14:12:43.945Z,4.25
2023-01-31T14:14:53.223Z,2.75
2023-01-31T14:16:54.674Z,7.95
2023-01-31T14:18:56.205Z,4.65
2023-01-31T14:20:57.655Z,6.55
2023-01-31T14:23:32.409Z,3.53
2023-01-31T14:25:42.073Z,9.85
2023-01-31T14:28:02.677Z,4.43
2023-01-31T14:30:04.695Z,7.50
2023-01-31T14:32:22.257Z,9.13
2023-01-31T14:34:26.611Z,12.45
2023-01-31T14:36:34.276Z,8.07
2023-01-31T14:38:45.252Z,14.27
2023-01-31T14:41:09.856Z,7.65
2023-01-31T14:43:26.616Z,10.20
2023-01-31T14:46:18.729Z,10.90
2023-01-31T14:48:24.645Z,10.27
2023-01-31T14:50:38.521Z,9.82
2023-01-31T14:52:52.914Z,10.55
2023-01-31T14:55:22.051Z,15.95
2023-01-31T14:57:31.198Z,14.55
2023-01-31T14:59:36.373Z,17.35
2023-01-31T15:01:38.337Z,12.43
2023-01-31T15:03:52.491Z,12.45
2023-01-31T15:06:11.664Z,11.93
2023-01-31T15:08:13.071Z,18.33
2023-01-31T15:10:53.335Z,8.98
2023-01-31T15:13:01.499Z,13.55
2023-01-31T15:15:05.480Z,18.70
2023-01-31T15:17:31.572Z,8.50
2023-01-31T15:19:44.261Z,13.37
2023-01-31T15:21:50.479Z,11.55
2023-01-31T15:23:53.945Z,13.13
2023-01-31T15:25:58.916Z,15.52
2023-01-31T15:28:02.563Z,11.82
2023-01-31T15:30:19.311Z,10.13
2023-01-31T15:32:45.747Z,12.38
2023-01-31T15:34:55.851Z,11.32
2023-01-31T15:37:16.569Z,11.02
2023-01-31T15:39:32.533Z,14.40
2023-01-31T15:41:42.349Z,16.98
2023-01-31T15:43:44.918Z,15.32
2023-01-31T15:45:51.526Z,13.25
2023-01-31T15:48:00.153Z,5.63
2023-01-31T15:50:01.646Z,17.38
2023-01-31T15:52:04.315Z,8.85
2023-01-31T15:54:07.093Z,9.60
2023-01-31T15:56:22.104Z,15.43
2023-01-31T15:58:25.789Z,12.68
2023-01-31T16:00:30.262Z,13.02
2023-01-31T16:02:37.984Z,17.23
2023-01-31T16:04:40.443Z,10.90
2023-01-31T16:06:41.976Z,10.30
2023-01-31T16:08:43.420Z,9.65
2023-01-31T16:10:46.600Z,12.90
2023-01-31T16:12:50.865Z,13.90
2023-01-31T16:14:59.229Z,10.25
2023-01-31T16:17:01.287Z,11.35
2023-01-31T16:19:04.256Z,12.02
2023-01-31T16:21:24.215Z,13.05
2023-01-31T16:23:34.897Z,12.85
2023-01-31T16:25:37.063Z,11.77
2023-01-31T16:27:42.794Z,13.93
2023-01-31T16:29:56.925Z,11.60
2023-01-31T16:31:59.520Z,8.60
2023-01-31T16:34:20.799Z,12.98
2023-01-31T16:36:51.427Z,9.90
2023-01-31T16:39:00.764Z,11.82
2023-01-31T16:41:07.956Z,19.83
2023-01-31T16:43:17.774Z,11.25
2023-01-31T16:45:34.036Z,16.50
2023-01-31T16:47:51.212Z,13.30
2023-01-31T16:50:15.146Z,11.15
2023-01-31T16:52:29.626Z,15.88
2023-01-31T16:54:31.331Z,12.43
2023-01-31T16:56:32.771Z,14.77
2023-01-31T16:58:43.064Z,20.48
2023-01-31T17:00:44.645Z,15.82
2023-01-31T17:02:46.126Z,17.48
2023-01-31T17:04:50.182Z,14.68
2023-01-31T17:07:03.200Z,12.32
2023-01-31T17:09:07.161Z,12.60
2023-01-31T17:11:16.429Z,13.73
2023-01-31T17:13:25.297Z,15.55
2023-01-31T17:15:26.948Z,14.98
2023-01-31T17:17:34.641Z,9.38
2023-01-31T17:19:36.146Z,13.85
2023-01-31T17:21:41.061Z,15.63
2023-01-31T17:23:42.796Z,18.27
2023-01-31T17:25:45.220Z,13.63
2023-01-31T17:27:47.467Z,11.40
2023-01-31T17:29:50.014Z,15.00
2023-01-31T17:31:52.146Z,17.00
2023-01-31T17:33:53.804Z,17.85
2023-01-31T17:35:55.339Z,17.95
2023-01-31T17:37:57.623Z,20.67
2023-01-31T17:39:59.525Z,15.80
2023-01-31T17:42:01.280Z,11.20
2023-01-31T17:44:03.038Z,17.75
2023-01-31T17:46:04.624Z,13.98
2023-01-31T17:48:07.794Z,19.42
2023-01-31T17:50:17.033Z,18.67
2023-01-31T17:52:18.610Z,23.50
2023-01-31T17:54:20.110Z,10.18
2023-01-31T17:56:21.839Z,16.15
2023-01-31T17:58:24.602Z,19.77
2023-01-31T18:00:26.051Z,16.35
2023-01-31T18:02:27.619Z,26.30
2023-01-31T18:04:29.312Z,14.02
2023-01-31T18:06:30.935Z,22.02
2023-01-31T18:08:32.815Z,21.63
2023-01-31T18:10:34.480Z,10.18
2023-01-31T18:12:36.607Z,22.88
2023-01-31T18:14:38.108Z,15.50
2023-01-31T18:16:39.691Z,21.45
2023-01-31T18:18:43.752Z,15.63
2023-01-31T18:20:48.186Z,30.00
2023-01-31T18:22:49.646Z,20.63
2023-01-31T18:24:51.215Z,17.63
2023-01-31T18:26:53.027Z,28.20
2023-01-31T18:28:57.256Z,23.27
2023-01-31T18:31:08.043Z,17.77
2023-01-31T18:33:09.733Z,20.73
2023-01-31T18:35:11.257Z,17.35
2023-01-31T18:37:19.303Z,21.90
2023-01-31T18:39:21.406Z,21.92
2023-01-31T18:41:23.073Z,22.60
2023-01-31T18:43:25.349Z,26.75
2023-01-31T18:45:26.870Z,23.98
2023-01-31T18:47:28.330Z,22.70
2023-01-31T18:49:30.048Z,22.40
2023-01-31T18:51:31.585Z,22.70
2023-01-31T18:53:38.515Z,18.08
2023-01-31T18:55:40.002Z,26.15
2023-01-31T18:57:41.531Z,23.45
2023-01-31T18:59:43.071Z,24.75
2023-01-31T19:01:44.714Z,21.10
2023-01-31T19:03:50.014Z,22.50
2023-01-31T19:05:51.507Z,18.90
2023-01-31T19:07:53.008Z,20.08
2023-01-31T19:09:54.561Z,20.05
2023-01-31T19:11:56.049Z,26.92
2023-01-31T19:13:58.505Z,16.98
2023-01-31T19:16:05.544Z,18.27
2023-01-31T19:18:07.189Z,28.13
2023-01-31T19:20:09.765Z,21.20
2023-01-31T19:22:11.236Z,19.70
2023-01-31T19:24:14.220Z,16.23
2023-01-31T19:26:17.331Z,16.13
2023-01-31T19:28:22.821Z,17.63
2023-01-31T19:30:24.349Z,17.58
2023-01-31T19:32:25.871Z,17.30
2023-01-31T19:34:27.343Z,24.05
2023-01-31T19:36:35.275Z,21.88
2023-01-31T19:38:36.949Z,26.88
2023-01-31T19:40:38.459Z,16.77
2023-01-31T19:42:42.281Z,27.02
2023-01-31T19:44:43.856Z,23.17
2023-01-31T19:46:46.346Z,20.60
2023-01-31T19:48:48.060Z,17.95
2023-01-31T19:50:49.535Z,21.80
2023-01-31T19:52:51.071Z,24.33
2023-01-31T19:54:52.646Z,19.42
2023-01-31T19:56:54.136Z,26.77
2023-01-31T19:58:55.723Z,21.95
2023-01-31T20:01:11.771Z,23.33
2023-01-31T20:03:13.305Z,19.55
2023-01-31T20:05:14.999Z,16.88
2023-01-31T20:07:16.513Z,17.95
2023-01-31T20:09:20.162Z,20.63
2023-01-31T20:11:23.440Z,20.05
2023-01-31T20:13:25.196Z,14.88
2023-01-31T20:15:27.355Z,19.70
2023-01-31T20:17:28.872Z,17.35
2023-01-31T20:19:30.326Z,21.60
2023-01-31T20:21:31.893Z,19.42
2023-01-31T20:23:33.822Z,19.20
2023-01-31T20:25:35.341Z,15.68
2023-01-31T20:27:36.889Z,20.25
2023-01-31T20:29:38.393Z,21.98
2023-01-31T20:31:39.956Z,16.38
2023-01-31T20:33:41.653Z,18.38
2023-01-31T20:35:43.981Z,11.05
2023-01-31T20:37:45.442Z,15.95
2023-01-31T20:39:46.892Z,18.77
2023-01-31T20:41:48.379Z,16.08
2023-01-31T20:43:50.648Z,27.63
2023-01-31T20:45:52.387Z,21.95
2023-01-31T20:47:58.285Z,23.58
2023-01-31T20:49:59.813Z,16.75
2023-01-31T20:52:02.431Z,18.25
2023-01-31T20:54:05.978Z,16.20
2023-01-31T20:56:09.946Z,18.98
2023-01-31T20:58:11.433Z,14.40
2023-01-31T21:00:13.316Z,18.08
2023-01-31T21:02:14.840Z,18.70
2023-01-31T21:04:16.388Z,12.00
2023-01-31T21:06:17.899Z,20.75
2023-01-31T21:08:20.146Z,23.00
2023-01-31T21:10:21.861Z,21.27
2023-01-31T21:12:23.488Z,25.08
2023-01-31T21:14:25.076Z,16.83
2023-01-31T21:16:26.557Z,21.08
2023-01-31T21:18:30.663Z,18.25
2023-01-31T21:20:32.129Z,15.20
2023-01-31T21:22:34.348Z,26.50
2023-01-31T21:24:36.786Z,13.63
2023-01-31T21:26:38.263Z,17.23
2023-01-31T21:28:40.111Z,18.15
2023-01-31T21:30:42.227Z,19.27
2023-01-31T21:32:43.854Z,19.38
2023-01-31T21:34:45.387Z,22.30
2023-01-31T21:36:46.900Z,14.43
2023-01-31T21:38:48.666Z,23.40
2023-01-31T21:41:10.716Z,25.63
2023-01-31T21:43:12.171Z,16.95
2023-01-31T21:45:13.661Z,14.77
2023-01-31T21:47:15.658Z,20.77
2023-01-31T21:49:17.128Z,13.23
2023-01-31T21:51:20.213Z,22.15
2023-01-31T21:53:22.276Z,13.20
2023-01-31T21:55:23.788Z,15.32
2023-01-31T21:57:25.247Z,16.67
2023-01-31T21:59:26.791Z,19.85
2023-01-31T22:01:31.154Z,22.80
2023-01-31T22:03:33.840Z,19.50
2023-01-31T22:05:35.322Z,16.85
2023-01-31T22:07:36.822Z,12.75
2023-01-31T22:09:38.309Z,14.38
2023-01-31T22:11:40.350Z,27.00
2023-01-31T22:13:46.795Z,18.23
2023-01-31T22:15:48.287Z,27.02
2023-01-31T22:17:49.799Z,17.17
2023-01-31T22:19:51.257Z,18.00
2023-01-31T22:21:52.830Z,28.30
2023-01-31T22:23:56.798Z,11.60
2023-01-31T22:26:02.881Z,19.10
2023-01-31T22:28:04.380Z,17.35
2023-01-31T22:30:15.861Z,22.08
2023-01-31T22:32:18.067Z,16.25
2023-01-31T22:34:19.523Z,19.02
2023-01-31T22:36:21.731Z,18.83
2023-01-31T22:38:24.177Z,19.45
2023-01-31T22:40:25.671Z,19.30
2023-01-31T22:42:27.130Z,18.60
2023-01-31T22:44:28.610Z,22.58
2023-01-31T22:46:30.237Z,18.48
2023-01-31T22:48:32.290Z,26.02
2023-01-31T22:50:33.769Z,25.27
2023-01-31T22:52:35.211Z,18.95
2023-01-31T22:54:36.695Z,24.70
2023-01-31T22:56:38.225Z,22.95
2023-01-31T22:58:40.154Z,24.48
2023-01-31T23:00:41.888Z,24.00
2023-01-31T23:02:43.349Z,20.85
2023-01-31T23:04:44.880Z,19.00
2023-01-31T23:06:46.365Z,21.95
2023-01-31T23:08:47.953Z,19.33
2023-01-31T23:10:49.456Z,22.13
2023-01-31T23:12:51.016Z,24.65
2023-01-31T23:14:52.484Z,22.88
2023-01-31T23:17:12.245Z,23.10
2023-01-31T23:19:15.358Z,17.77
2023-01-31T23:21:18.678Z,17.40
2023-01-31T23:23:20.929Z,21.27
2023-01-31T23:25:25.627Z,19.50
2023-01-31T23:27:27.601Z,17.08
2023-01-31T23:29:29.145Z,27.05
2023-01-31T23:31:32.533Z,27.23
2023-01-31T23:33:34.099Z,24.25
2023-01-31T23:35:35.589Z,23.33
2023-01-31T23:37:37.150Z,18.08
2023-01-31T23:39:38.621Z,26.05
2023-01-31T23:41:40.148Z,32.03
2023-01-31T23:43:41.642Z,19.50
2023-01-31T23:45:43.122Z,27.48
2023-01-31T23:47:44.700Z,21.65
2023-01-31T23:49:46.337Z,20.63
2023-01-31T23:51:47.822Z,19.73
2023-01-31T23:53:49.323Z,24.27
2023-01-31T23:55:50.798Z,24.40
2023-01-31T23:57:52.369Z,23.45
2023-01-31T23:59:53.906Z,16.10
